Time;durP1;ratioP1;P1;durP2;ratioP2;P2;SDS_P1;SDS_P2;PMS_P1;PMS_P2;Temp;Humidity;BMP_temperature;BMP_pressure;BME280_temperature;BME280_humidity;BME280_pressure;Samples;Min_cycle;Max_cycle;Signal;HPM_P1;HPM_P2
2021/10/13 00:01:44;;;;;;;13.40;6.10;;;;;;;6.45;89.50;101869.69;10269226;28;20490;-70
2021/10/13 00:06:41;;;;;;;13.38;6.82;;;;;;;6.38;89.62;101873.69;10256804;28;20548;-70
2021/10/13 00:11:38;;;;;;;11.10;6.45;;;;;;;6.37;89.80;101878.31;10260920;28;20044;-69
2021/10/13 00:16:36;;;;;;;13.30;8.30;;;;;;;6.29;90.02;101876.09;10262387;28;20102;-69
2021/10/13 00:21:32;;;;;;;15.77;8.18;;;;;;;6.23;90.71;101877.13;10269033;28;20098;-70
2021/10/13 00:26:29;;;;;;;12.15;7.05;;;;;;;6.26;90.81;101882.03;10266149;28;20041;-69
2021/10/13 00:31:25;;;;;;;12.32;7.05;;;;;;;6.26;90.32;101888.28;10264384;28;20136;-69
2021/10/13 00:36:22;;;;;;;10.75;6.32;;;;;;;6.16;91.00;101877.34;10259315;28;20156;-69
2021/10/13 00:41:18;;;;;;;9.48;6.13;;;;;;;6.23;90.87;101879.84;10264074;28;20177;-69
2021/10/13 00:46:15;;;;;;;7.57;5.72;;;;;;;6.29;90.85;101876.09;10261380;28;20460;-69
2021/10/13 00:51:12;;;;;;;8.27;5.88;;;;;;;6.33;90.81;101882.63;10258284;28;20091;-70
2021/10/13 00:56:09;;;;;;;9.77;6.57;;;;;;;6.34;90.30;101878.03;10266556;28;20105;-70
2021/10/13 01:01:29;;;;;;;9.40;6.35;;;;;;;6.33;89.38;101877.19;10261554;28;20091;-70
2021/10/13 01:06:43;;;;;;;9.90;6.38;;;;;;;6.25;89.83;101875.00;10260134;28;20070;-69
2021/10/13 01:12:04;;;;;;;9.10;5.78;;;;;;;6.23;89.80;101879.84;10260008;28;20045;-70
2021/10/13 01:17:03;;;;;;;11.40;6.90;;;;;;;6.27;89.39;101883.69;10265108;28;21594;-69
2021/10/13 01:22:37;;;;;;;12.63;6.43;;;;;;;6.22;89.97;101891.78;10262946;28;20037;-70
2021/10/13 01:27:56;;;;;;;12.90;7.70;;;;;;;6.17;89.89;101887.13;10265625;28;20471;-70
2021/10/13 01:33:40;;;;;;;9.60;6.38;;;;;;;6.10;89.85;101889.25;10260376;28;20049;-70
2021/10/13 01:38:42;;;;;;;9.90;6.18;;;;;;;6.07;89.25;101889.78;10245412;28;20045;-70
2021/10/13 01:43:42;;;;;;;8.32;6.00;;;;;;;6.02;88.64;101887.84;10260380;28;20430;-70
2021/10/13 01:48:40;;;;;;;12.50;7.38;;;;;;;6.10;88.94;101881.94;10270025;28;20076;-70
2021/10/13 01:53:39;;;;;;;12.40;6.85;;;;;;;6.09;89.35;101893.88;10276411;28;20064;-70
2021/10/13 01:58:37;;;;;;;11.10;8.60;;;;;;;6.12;89.67;101903.38;10268968;28;20553;-70
2021/10/13 02:03:34;;;;;;;12.57;7.57;;;;;;;6.08;89.93;101903.09;10262983;28;20041;-69
2021/10/13 02:08:31;;;;;;;12.18;8.18;;;;;;;6.04;89.78;101912.03;10266195;28;20494;-69
2021/10/13 02:13:34;;;;;;;13.68;8.68;;;;;;;6.03;90.74;101922.03;10265918;28;20464;-70
2021/10/13 02:18:33;;;;;;;10.15;7.07;;;;;;;5.90;90.95;101919.72;10266444;28;20230;-70
2021/10/13 02:23:34;;;;;;;11.13;7.00;;;;;;;5.91;90.02;101922.16;10273535;28;20060;-69
2021/10/13 02:28:37;;;;;;;12.55;7.25;;;;;;;5.88;90.01;101930.03;10278365;28;20068;-69
2021/10/13 02:33:36;;;;;;;10.20;6.22;;;;;;;5.89;89.30;101920.78;10270701;28;20096;-70
2021/10/13 02:38:33;;;;;;;10.95;6.90;;;;;;;5.91;89.24;101924.06;10273831;28;20470;-69
2021/10/13 02:43:29;;;;;;;10.38;7.80;;;;;;;5.93;89.28;101927.34;10260289;28;20472;-70
2021/10/13 02:48:30;;;;;;;9.15;6.22;;;;;;;5.87;89.66;101922.94;10267349;28;20130;-70
2021/10/13 02:53:51;;;;;;;12.30;8.70;;;;;;;5.92;90.02;101925.72;10271416;28;20045;-70
2021/10/13 02:59:22;;;;;;;12.90;8.27;;;;;;;5.87;90.81;101923.78;10263406;28;20080;-69
2021/10/13 03:04:26;;;;;;;10.70;7.75;;;;;;;5.83;90.45;101928.06;10265237;28;20069;-70
2021/10/13 03:09:25;;;;;;;;;;;;;;;5.78;90.17;101930.75;10271172;28;20097;-70
2021/10/13 03:14:24;;;;;;;8.90;7.32;;;;;;;5.74;89.82;101923.38;10271911;28;19920;-70
2021/10/13 03:19:21;;;;;;;8.25;6.03;;;;;;;5.74;89.30;101923.38;10268063;28;20041;-70
2021/10/13 03:24:19;;;;;;;8.07;6.07;;;;;;;5.68;88.85;101920.59;10266827;28;20077;-70
2021/10/13 03:29:16;;;;;;;10.18;6.20;;;;;;;5.58;87.80;101931.34;10257738;28;20132;-70
2021/10/13 03:34:16;;;;;;;8.60;5.80;;;;;;;5.53;87.32;101934.00;10267098;28;20049;-70
2021/10/13 03:39:13;;;;;;;9.02;6.55;;;;;;;5.46;87.13;101933.38;10272153;28;20049;-70
2021/10/13 03:44:10;;;;;;;9.32;6.20;;;;;;;5.44;87.21;101936.34;10269106;28;20080;-70
2021/10/13 03:49:07;;;;;;;9.45;6.55;;;;;;;5.40;87.19;101956.06;10265686;28;20065;-70
2021/10/13 03:54:03;;;;;;;10.77;6.63;;;;;;;5.43;87.68;101955.56;10258380;28;20095;-69
2021/10/13 03:59:00;;;;;;;8.23;5.80;;;;;;;5.40;87.75;101964.22;10264464;28;20060;-70
2021/10/13 04:03:56;;;;;;;7.75;5.88;;;;;;;5.40;87.21;101956.88;10260544;28;20103;-69
2021/10/13 04:08:53;;;;;;;8.65;5.57;;;;;;;5.35;87.12;101964.97;10259707;28;20073;-69
2021/10/13 04:13:50;;;;;;;11.15;6.28;;;;;;;5.30;86.66;101961.38;10262549;28;20126;-69
2021/10/13 04:18:46;;;;;;;8.05;5.75;;;;;;;5.23;86.60;101965.09;10262296;28;20065;-70
2021/10/13 04:23:43;;;;;;;9.75;5.90;;;;;;;5.16;86.88;101959.03;10262531;28;20040;-70
2021/10/13 04:28:39;;;;;;;9.55;5.43;;;;;;;5.19;87.09;101960.44;10252226;28;20099;-69
2021/10/13 04:33:36;;;;;;;8.43;5.35;;;;;;;5.19;87.29;101960.44;10260493;28;20045;-72
2021/10/13 04:38:32;;;;;;;10.93;6.30;;;;;;;5.19;86.79;101953.09;10263828;28;20071;-71
2021/10/13 04:43:29;;;;;;;7.95;5.63;;;;;;;5.16;87.06;101956.31;10266534;28;20060;-70
2021/10/13 04:48:25;;;;;;;9.55;5.95;;;;;;;5.17;87.25;101949.81;10264004;28;20131;-73
2021/10/13 04:53:22;;;;;;;9.60;5.57;;;;;;;5.11;87.46;101950.84;10262508;28;20461;-73
2021/10/13 04:58:18;;;;;;;7.72;5.90;;;;;;;5.19;87.26;101950.41;10266182;28;20464;-73
2021/10/13 05:03:16;;;;;;;11.60;5.85;;;;;;;5.20;87.10;101962.09;10256501;28;20046;-73
2021/10/13 05:08:12;;;;;;;9.88;6.60;;;;;;;5.20;86.45;101952.06;10248891;28;20075;-72
2021/10/13 05:13:10;;;;;;;10.63;6.38;;;;;;;5.15;87.27;101954.69;10251992;28;20753;-73
2021/10/13 05:18:07;;;;;;;9.18;5.97;;;;;;;5.12;87.22;101954.38;10257808;28;20048;-73
2021/10/13 05:23:04;;;;;;;10.13;5.95;;;;;;;5.06;87.06;101948.06;10261171;28;20522;-73
2021/10/13 05:28:00;;;;;;;9.32;6.40;;;;;;;5.05;87.66;101962.69;10263324;28;20095;-74
2021/10/13 05:32:57;;;;;;;10.27;5.97;;;;;;;5.02;87.81;101961.28;10269867;28;20475;-74
2021/10/13 05:37:53;;;;;;;11.00;6.18;;;;;;;4.99;87.47;101974.50;10267794;28;20048;-73
2021/10/13 05:42:50;;;;;;;11.40;6.18;;;;;;;5.00;87.40;101976.16;10269992;28;20053;-73
2021/10/13 05:47:46;;;;;;;10.75;5.70;;;;;;;4.98;87.76;101981.00;10266086;28;20080;-74
2021/10/13 05:52:42;;;;;;;9.35;5.45;;;;;;;5.01;87.18;101985.94;10264760;28;20053;-73
2021/10/13 05:57:39;;;;;;;8.43;5.40;;;;;;;4.98;87.63;101989.16;10269873;28;20045;-73
2021/10/13 06:02:36;;;;;;;11.90;5.15;;;;;;;4.96;87.51;101989.38;10269244;28;20052;-73
2021/10/13 06:07:32;;;;;;;11.32;6.10;;;;;;;4.96;87.96;101994.81;10262065;28;20059;-73
2021/10/13 06:12:29;;;;;;;8.88;5.93;;;;;;;4.98;87.76;101997.28;10264006;28;20107;-73
2021/10/13 06:17:25;;;;;;;10.02;6.28;;;;;;;4.97;87.56;102006.50;10268459;28;20041;-72
2021/10/13 06:22:22;;;;;;;10.70;6.32;;;;;;;5.00;87.51;102003.28;10266289;28;20048;-73
2021/10/13 06:27:18;;;;;;;12.82;6.30;;;;;;;5.15;89.33;102014.34;10259363;28;20099;-72
2021/10/13 06:32:15;;;;;;;11.88;6.07;;;;;;;5.34;89.71;102019.47;10258570;28;20041;-74
2021/10/13 06:37:11;;;;;;;13.63;7.47;;;;;;;5.42;89.34;102029.88;10263210;28;20721;-74
2021/10/13 06:42:08;;;;;;;11.32;7.03;;;;;;;5.45;89.64;102034.81;10266067;28;20491;-74
2021/10/13 06:47:04;;;;;;;12.75;7.10;;;;;;;5.52;89.61;102043.56;10265933;28;20103;-74
2021/10/13 06:52:01;;;;;;;12.75;7.30;;;;;;;5.54;89.40;102049.56;10268638;28;20049;-74
2021/10/13 06:56:57;;;;;;;13.68;6.65;;;;;;;5.67;90.26;102049.22;10271032;28;20499;-73
2021/10/13 07:01:54;;;;;;;12.25;7.15;;;;;;;5.93;90.31;102062.28;10279919;28;20049;-74
2021/10/13 07:06:51;;;;;;;8.60;5.95;;;;;;;5.93;90.93;102060.38;10268053;28;20103;-74
2021/10/13 07:11:47;;;;;;;8.32;5.72;;;;;;;6.06;91.06;102062.75;10274450;28;20045;-73
2021/10/13 07:16:45;;;;;;;10.60;5.10;;;;;;;6.23;91.47;102069.97;10270084;28;20072;-74
2021/10/13 07:21:41;;;;;;;9.45;4.55;;;;;;;6.50;90.83;102062.66;10275536;28;20144;-74
2021/10/13 07:26:41;;;;;;;9.32;4.15;;;;;;;6.74;89.82;102062.31;10277030;28;20431;-74
2021/10/13 07:31:38;;;;;;;7.53;3.80;;;;;;;6.86;89.91;102076.53;10269083;28;20068;-74
2021/10/13 07:36:36;;;;;;;8.88;4.20;;;;;;;7.01;88.96;102072.28;10250346;28;20052;-74
2021/10/13 07:41:34;;;;;;;8.18;3.92;;;;;;;7.09;89.48;102086.22;10260654;28;20844;-74
2021/10/13 07:46:30;;;;;;;7.90;3.65;;;;;;;7.19;88.97;102080.03;10261624;28;20044;-75
2021/10/13 07:51:27;;;;;;;10.38;4.20;;;;;;;7.34;88.83;102082.88;10264338;28;20219;-74
2021/10/13 07:56:24;;;;;;;7.28;3.55;;;;;;;7.38;89.15;102084.00;10261964;28;20102;-75
2021/10/13 08:01:20;;;;;;;8.43;4.10;;;;;;;7.40;89.39;102085.63;10263000;28;20048;-75
2021/10/13 08:06:17;;;;;;;5.82;3.88;;;;;;;7.46;88.96;102085.38;10264538;28;20045;-74
2021/10/13 08:11:13;;;;;;;10.25;3.95;;;;;;;7.49;89.50;102081.31;10267238;28;20608;-75
2021/10/13 08:16:10;;;;;;;13.23;4.93;;;;;;;7.56;90.79;102079.19;10266901;28;20164;-74
2021/10/13 08:21:06;;;;;;;9.75;4.50;;;;;;;7.67;90.85;102074.63;10267683;28;20048;-74
2021/10/13 08:26:03;;;;;;;7.03;3.40;;;;;;;7.88;89.83;102080.97;10251263;28;20085;-73
2021/10/13 08:31:00;;;;;;;7.32;3.10;;;;;;;7.92;89.38;102077.44;10257023;28;20041;-74
2021/10/13 08:35:56;;;;;;;7.28;3.55;;;;;;;8.14;89.27;102085.41;10246696;28;20067;-74
2021/10/13 08:40:53;;;;;;;7.55;3.65;;;;;;;8.40;88.99;102093.69;10264475;28;20057;-74
2021/10/13 08:45:50;;;;;;;6.15;2.40;;;;;;;8.49;87.88;102092.06;10258910;28;20056;-74
2021/10/13 08:50:49;;;;;;;10.23;3.00;;;;;;;8.60;87.98;102093.72;10266718;28;20061;-74
2021/10/13 08:55:46;;;;;;;8.50;2.72;;;;;;;8.90;88.43;102099.47;10259908;28;20869;-75
2021/10/13 09:01:05;;;;;;;7.20;2.10;;;;;;;8.99;86.61;102101.38;10252198;28;20048;-75
2021/10/13 09:06:13;;;;;;;7.10;2.42;;;;;;;9.13;85.20;102100.84;10259815;28;20052;-74
2021/10/13 09:11:10;;;;;;;5.30;1.50;;;;;;;9.19;85.43;102105.19;10237901;28;20046;-74
2021/10/13 09:16:15;;;;;;;7.90;1.83;;;;;;;9.23;84.13;102106.28;10217233;28;20095;-74
2021/10/13 09:21:11;;;;;;;5.63;1.70;;;;;;;9.33;83.72;102100.81;10247091;28;20069;-74
2021/10/13 09:26:10;;;;;;;8.57;1.88;;;;;;;9.41;84.28;102108.44;10262769;28;20068;-73
2021/10/13 09:31:14;;;;;;;5.05;1.45;;;;;;;9.43;83.65;102100.78;10241779;28;20120;-74
2021/10/13 09:36:13;;;;;;;4.93;1.70;;;;;;;9.47;82.63;102096.41;10260640;28;20048;-74
2021/10/13 09:41:10;;;;;;;10.00;2.30;;;;;;;9.52;82.13;102092.03;10250865;28;20099;-75
2021/10/13 09:46:12;;;;;;;6.70;2.58;;;;;;;9.68;82.39;102096.38;10256004;28;20038;-75
2021/10/13 09:51:36;;;;;;;7.50;3.00;;;;;;;9.69;81.48;102098.00;10260869;28;20140;-75
2021/10/13 09:56:37;;;;;;;6.65;2.10;;;;;;;9.65;81.82;102107.81;10250975;28;20514;-73
2021/10/13 10:01:34;;;;;;;10.02;2.35;;;;;;;9.64;81.81;102085.16;10258135;28;20049;-75
2021/10/13 10:06:32;;;;;;;6.07;2.40;;;;;;;9.76;81.72;102098.50;10264744;28;20502;-75
2021/10/13 10:11:37;;;;;;;8.10;2.33;;;;;;;9.86;81.28;102106.69;10264895;28;20087;-73
2021/10/13 10:16:37;;;;;;;8.00;2.88;;;;;;;9.88;82.24;102112.66;10261653;28;20106;-73
2021/10/13 10:21:50;;;;;;;6.53;2.45;;;;;;;9.78;80.98;102111.91;10270432;28;20041;-73
2021/10/13 10:26:46;;;;;;;7.28;2.53;;;;;;;9.96;81.18;102119.47;10259344;28;20081;-73
2021/10/13 10:31:57;;;;;;;6.10;2.10;;;;;;;10.05;81.19;102117.00;10262844;28;20428;-73
2021/10/13 10:36:56;;;;;;;4.47;2.53;;;;;;;10.08;81.29;102121.91;10268113;28;20041;-72
2021/10/13 10:41:54;;;;;;;7.65;2.75;;;;;;;10.23;81.80;102119.06;10263566;28;20053;-73
2021/10/13 10:47:16;;;;;;;7.78;2.20;;;;;;;10.29;80.88;102123.44;10264046;28;20048;-73
2021/10/13 10:52:16;;;;;;;7.07;2.20;;;;;;;10.32;81.00;102120.16;10265970;28;20049;-73
2021/10/13 10:57:35;;;;;;;5.60;2.00;;;;;;;10.41;81.01;102130.50;10260643;28;20498;-70
2021/10/13 11:02:31;;;;;;;8.02;2.13;;;;;;;10.56;80.81;102121.38;10256655;28;20110;-70
2021/10/13 11:07:28;;;;;;;8.98;2.70;;;;;;;10.73;80.43;102128.09;10263903;28;20094;-72
2021/10/13 11:12:25;;;;;;;9.45;2.20;;;;;;;10.79;79.25;102114.38;10255482;28;20162;-72
2021/10/13 11:17:25;;;;;;;5.65;1.85;;;;;;;10.86;78.72;102117.63;10249273;28;20073;-72
2021/10/13 11:22:21;;;;;;;9.90;3.35;;;;;;;10.99;77.75;102124.38;10254607;28;20102;-72
2021/10/13 11:27:24;;;;;;;6.55;1.90;;;;;;;11.13;77.80;102117.94;10266081;28;20502;-73
2021/10/13 11:32:23;;;;;;;6.20;1.80;;;;;;;11.21;77.21;102118.41;10272660;28;20045;-72
2021/10/13 11:37:24;;;;;;;5.82;1.65;;;;;;;11.28;76.46;102116.16;10265931;28;20049;-71
2021/10/13 11:42:24;;;;;;;7.05;1.90;;;;;;;11.34;75.90;102099.38;10261167;28;20056;-72
2021/10/13 11:47:35;;;;;;;6.93;2.00;;;;;;;11.48;76.09;102105.00;10260047;28;20163;-72
2021/10/13 11:52:32;;;;;;;9.40;1.85;;;;;;;11.69;75.32;102104.78;10255608;28;20045;-72
2021/10/13 11:57:30;;;;;;;12.65;1.98;;;;;;;11.86;73.24;102116.09;10269272;28;20076;-72
2021/10/13 12:02:27;;;;;;;9.68;1.40;;;;;;;11.77;71.70;102118.66;10256008;28;20037;-74
2021/10/13 12:07:24;;;;;;;9.35;1.50;;;;;;;11.76;72.94;102124.44;10249792;28;20049;-73
2021/10/13 12:12:21;;;;;;;9.73;1.92;;;;;;;11.74;69.46;102123.91;10266959;28;20045;-73
2021/10/13 12:17:26;;;;;;;9.77;1.50;;;;;;;11.56;68.18;102120.81;10265572;28;20510;-72
2021/10/13 12:22:22;;;;;;;8.95;1.42;;;;;;;11.49;67.84;102114.06;10257593;28;20052;-73
2021/10/13 12:27:30;;;;;;;10.73;1.15;;;;;;;11.34;66.39;102120.47;10262915;28;20430;-72
2021/10/13 12:32:27;;;;;;;6.18;1.08;;;;;;;11.32;67.05;102112.56;10261514;28;20045;-73
2021/10/13 12:37:25;;;;;;;4.18;1.20;;;;;;;11.33;69.98;102121.59;10254006;28;20095;-72
2021/10/13 12:42:23;;;;;;;7.32;1.15;;;;;;;11.41;73.10;102123.69;10259475;28;20044;-72
2021/10/13 12:47:22;;;;;;;7.80;1.25;;;;;;;11.42;72.65;102121.78;10256137;28;20045;-72
2021/10/13 12:52:18;;;;;;;11.82;1.40;;;;;;;11.33;74.45;102122.41;10263812;28;20046;-73
2021/10/13 12:57:21;;;;;;;6.03;1.35;;;;;;;11.35;75.54;102124.88;10270056;28;20118;-73
2021/10/13 13:02:17;;;;;;;6.87;1.03;;;;;;;11.35;75.70;102116.66;10259908;28;20087;-71
2021/10/13 13:07:14;;;;;;;7.53;1.00;;;;;;;11.37;75.93;102114.41;10260614;28;20045;-72
2021/10/13 13:12:11;;;;;;;5.53;0.98;;;;;;;11.34;73.39;102115.81;10261914;28;20049;-72
2021/10/13 13:17:09;;;;;;;5.45;0.95;;;;;;;11.48;73.01;102113.22;10249824;28;20071;-72
2021/10/13 13:22:06;;;;;;;5.90;1.10;;;;;;;11.79;71.80;102110.16;10260929;28;20056;-72
2021/10/13 13:27:03;;;;;;;5.38;1.10;;;;;;;12.06;70.04;102114.25;10255888;28;20045;-72
2021/10/13 13:32:01;;;;;;;4.53;1.00;;;;;;;11.78;70.34;102117.53;10252008;28;21403;-72
2021/10/13 13:37:08;;;;;;;8.35;1.08;;;;;;;11.71;71.60;102105.31;10250510;28;20041;-72
2021/10/13 13:42:04;;;;;;;5.43;1.38;;;;;;;11.91;72.91;102099.63;10256523;28;20069;-72
2021/10/13 13:47:01;;;;;;;7.60;1.70;;;;;;;12.22;71.59;102112.94;10269846;28;20053;-72
2021/10/13 13:51:57;;;;;;;7.22;1.38;;;;;;;12.04;71.64;102105.50;10271789;28;20049;-73
2021/10/13 13:56:54;;;;;;;5.18;1.15;;;;;;;11.91;71.79;102121.56;10268900;28;20072;-73
2021/10/13 14:01:50;;;;;;;9.23;1.40;;;;;;;11.74;72.12;102110.19;10272998;28;20448;-71
2021/10/13 14:06:47;;;;;;;6.63;1.33;;;;;;;11.87;73.13;102098.56;10265102;28;20406;-72
2021/10/13 14:11:48;;;;;;;7.03;1.05;;;;;;;12.18;72.37;102111.88;10268276;28;20064;-72
2021/10/13 14:16:45;;;;;;;7.45;1.25;;;;;;;12.24;71.56;102107.97;10257031;28;20167;-72
2021/10/13 14:21:41;;;;;;;6.72;0.93;;;;;;;12.15;71.49;102102.31;10259609;28;20098;-72
2021/10/13 14:26:38;;;;;;;6.53;1.30;;;;;;;12.29;70.53;102102.41;10241536;28;20080;-72
2021/10/13 14:31:34;;;;;;;4.65;0.88;;;;;;;12.37;67.28;102104.50;10249736;28;20080;-72
2021/10/13 14:36:31;;;;;;;5.05;0.90;;;;;;;11.96;65.91;102109.72;10251431;28;20120;-72
2021/10/13 14:41:27;;;;;;;4.28;0.88;;;;;;;11.89;66.93;102109.25;10262613;28;20064;-74
2021/10/13 14:46:24;;;;;;;5.68;1.02;;;;;;;11.82;67.27;102117.78;10260087;28;20418;-71
2021/10/13 14:51:21;;;;;;;3.45;0.82;;;;;;;11.76;67.57;102117.03;10256002;28;20079;-71
2021/10/13 14:56:17;;;;;;;4.63;0.80;;;;;;;11.79;67.48;102115.66;10268471;28;20510;-72
2021/10/13 15:01:14;;;;;;;7.82;1.13;;;;;;;11.88;68.59;102127.63;10261243;28;20049;-72
2021/10/13 15:06:10;;;;;;;5.20;1.10;;;;;;;11.91;69.50;102129.78;10266673;28;20127;-71
2021/10/13 15:11:07;;;;;;;6.50;1.10;;;;;;;11.69;69.86;102122.03;10271169;28;20072;-71
2021/10/13 15:16:04;;;;;;;7.00;2.25;;;;;;;11.74;70.08;102127.47;10263186;28;20140;-70
2021/10/13 15:21:00;;;;;;;11.80;1.40;;;;;;;11.65;70.57;102125.66;10263284;28;20069;-70
2021/10/13 15:25:57;;;;;;;8.15;1.50;;;;;;;11.54;71.27;102135.91;10259794;28;20420;-70
2021/10/13 15:30:53;;;;;;;7.05;0.88;;;;;;;11.34;70.86;102125.97;10259179;28;20502;-68
2021/10/13 15:35:50;;;;;;;5.80;1.02;;;;;;;11.40;72.07;102130.28;10268284;28;20052;-70
2021/10/13 15:40:47;;;;;;;16.33;1.75;;;;;;;11.40;71.35;102129.50;10273292;28;20071;-71
2021/10/13 15:45:43;;;;;;;6.38;1.10;;;;;;;11.39;71.74;102134.13;10258139;28;20071;-69
2021/10/13 15:50:45;;;;;;;6.63;0.93;;;;;;;11.34;71.29;102128.69;10263556;28;20076;-69
2021/10/13 15:55:41;;;;;;;5.18;1.20;;;;;;;11.30;71.53;102144.06;10258636;28;20079;-69
2021/10/13 16:00:38;;;;;;;5.00;0.73;;;;;;;11.23;72.29;102141.69;10263049;28;20044;-70
2021/10/13 16:05:35;;;;;;;3.78;0.80;;;;;;;11.23;72.34;102135.38;10261060;28;20064;-69
2021/10/13 16:10:31;;;;;;;6.47;1.10;;;;;;;11.28;72.43;102138.91;10263619;28;20518;-69
2021/10/13 16:15:28;;;;;;;3.45;0.80;;;;;;;11.31;72.51;102137.50;10258766;28;20103;-69
2021/10/13 16:20:24;;;;;;;7.40;1.02;;;;;;;11.23;71.77;102141.69;10269245;28;20068;-69
2021/10/13 16:25:21;;;;;;;8.02;1.23;;;;;;;11.21;72.35;102143.91;10259560;28;20552;-70
2021/10/13 16:30:17;;;;;;;5.93;1.15;;;;;;;11.13;73.25;102139.84;10263382;28;20088;-72
2021/10/13 16:35:14;;;;;;;6.43;1.42;;;;;;;11.19;73.11;102131.59;10261180;28;20049;-73
2021/10/13 16:40:10;;;;;;;8.18;1.58;;;;;;;11.11;73.41;102133.81;10253118;28;20041;-73
2021/10/13 16:45:07;;;;;;;8.43;2.45;;;;;;;11.10;73.91;102137.69;10259641;28;20053;-73
2021/10/13 16:50:05;;;;;;;7.30;1.52;;;;;;;11.13;74.92;102137.09;10262224;28;20450;-74
2021/10/13 16:55:03;;;;;;;11.52;2.28;;;;;;;11.14;74.14;102141.47;10262814;28;20045;-74
2021/10/13 16:59:59;;;;;;;7.53;2.28;;;;;;;11.17;74.39;102142.81;10258195;28;20041;-73
2021/10/13 17:04:55;;;;;;;4.78;1.42;;;;;;;11.14;75.95;102143.41;10260395;28;20110;-73
2021/10/13 17:09:52;;;;;;;9.02;1.40;;;;;;;11.16;75.74;102136.53;10253751;28;20072;-73
2021/10/13 17:14:48;;;;;;;8.48;1.10;;;;;;;11.14;75.51;102138.75;10262858;28;20083;-73
2021/10/13 17:19:45;;;;;;;6.57;1.60;;;;;;;11.08;75.88;102139.88;10265490;28;20071;-73
2021/10/13 17:24:41;;;;;;;9.80;2.20;;;;;;;11.07;76.12;102138.25;10268278;28;20665;-73
2021/10/13 17:29:39;;;;;;;5.45;1.60;;;;;;;11.05;76.85;102140.47;10251194;28;20102;-72
2021/10/13 17:34:36;;;;;;;5.00;1.60;;;;;;;11.04;76.98;102148.94;10262575;28;20079;-72
2021/10/13 17:39:32;;;;;;;8.68;2.33;;;;;;;11.02;77.53;102146.50;10259301;28;20072;-73
2021/10/13 17:44:28;;;;;;;6.25;1.65;;;;;;;11.04;77.73;102138.81;10254206;28;20446;-73
2021/10/13 17:49:25;;;;;;;8.35;1.73;;;;;;;11.04;78.56;102144.28;10245085;28;20042;-73
2021/10/13 17:54:21;;;;;;;8.23;1.98;;;;;;;10.87;78.79;102149.34;10259400;28;20085;-73
2021/10/13 17:59:18;;;;;;;11.85;3.80;;;;;;;10.93;79.05;102143.56;10254605;28;20132;-73
2021/10/13 18:04:14;;;;;;;8.38;1.70;;;;;;;10.77;79.25;102154.88;10262397;28;20196;-73
2021/10/13 18:09:11;;;;;;;7.32;1.50;;;;;;;10.86;80.09;102159.50;10245906;28;20575;-74
2021/10/13 18:14:07;;;;;;;8.18;1.58;;;;;;;10.88;80.42;102170.13;10259102;28;20466;-73
2021/10/13 18:19:04;;;;;;;9.00;2.75;;;;;;;10.81;80.17;102172.38;10258856;28;20072;-73
2021/10/13 18:24:00;;;;;;;8.93;2.17;;;;;;;10.77;81.08;102166.66;10250005;28;20470;-73
2021/10/13 18:28:57;;;;;;;9.18;2.08;;;;;;;10.71;82.00;102185.03;10266381;28;20040;-73
2021/10/13 18:33:54;;;;;;;10.68;2.60;;;;;;;10.69;82.31;102181.75;10262669;28;20148;-73
2021/10/13 18:38:51;;;;;;;16.70;2.47;;;;;;;10.59;83.74;102181.81;10260622;28;20979;-72
2021/10/13 18:43:47;;;;;;;6.80;1.45;;;;;;;10.49;85.35;102181.88;10257064;28;20041;-72
2021/10/13 18:48:44;;;;;;;8.00;2.08;;;;;;;10.47;85.88;102184.06;10260959;28;20125;-73
2021/10/13 18:53:40;;;;;;;8.15;1.63;;;;;;;10.32;87.88;102188.50;10256653;28;20045;-73
2021/10/13 18:58:37;;;;;;;9.35;1.90;;;;;;;10.40;88.52;102178.09;10262940;28;20045;-74
2021/10/13 19:03:34;;;;;;;13.77;2.15;;;;;;;10.36;88.14;102171.53;10266186;28;20075;-73
2021/10/13 19:08:30;;;;;;;11.98;2.08;;;;;;;10.39;88.82;102176.44;10269865;28;20098;-73
2021/10/13 19:13:27;;;;;;;14.50;4.30;;;;;;;10.37;88.64;102163.03;10262558;28;20205;-74
2021/10/13 19:18:24;;;;;;;9.10;2.00;;;;;;;10.44;89.27;102168.22;10268024;28;20072;-71
2021/10/13 19:23:20;;;;;;;10.25;2.20;;;;;;;10.44;88.83;102168.22;10260997;28;20414;-74
2021/10/13 19:28:17;;;;;;;7.85;2.92;;;;;;;10.41;89.70;102163.31;10267307;28;20098;-71
2021/10/13 19:33:13;;;;;;;7.85;3.03;;;;;;;10.44;89.75;102151.81;10262506;28;20049;-73
2021/10/13 19:38:10;;;;;;;9.25;3.92;;;;;;;10.39;90.43;102149.09;10257107;28;20045;-74
2021/10/13 19:43:07;;;;;;;11.68;4.65;;;;;;;10.34;90.95;102149.13;10268078;28;20442;-74
2021/10/13 19:48:06;;;;;;;15.15;4.28;;;;;;;10.41;91.10;102144.97;10242660;28;20063;-73
2021/10/13 19:53:03;;;;;;;10.23;3.75;;;;;;;10.48;90.99;102148.22;10255612;28;20080;-72
2021/10/13 19:58:00;;;;;;;10.90;4.00;;;;;;;10.48;91.30;102141.94;10249957;28;20057;-73
2021/10/13 20:02:57;;;;;;;10.18;4.30;;;;;;;10.44;90.87;102147.19;10254937;28;20045;-72
2021/10/13 20:07:55;;;;;;;9.80;4.40;;;;;;;10.44;90.93;102140.88;10252245;28;20088;-73
2021/10/13 20:12:52;;;;;;;8.48;4.63;;;;;;;10.40;90.64;102145.28;10259675;28;20071;-74
2021/10/13 20:17:48;;;;;;;10.48;3.80;;;;;;;10.39;91.33;102138.16;10257659;28;20049;-74
2021/10/13 20:22:46;;;;;;;10.70;4.20;;;;;;;10.38;91.50;102131.06;10266810;28;20060;-74
2021/10/13 20:27:42;;;;;;;14.85;4.20;;;;;;;10.44;91.13;102136.25;10258572;28;20094;-74
2021/10/13 20:32:39;;;;;;;13.30;3.85;;;;;;;10.36;91.44;102138.75;10262775;28;20576;-74
2021/10/13 20:37:36;;;;;;;13.95;3.28;;;;;;;10.38;90.27;102125.59;10251408;28;20132;-73
2021/10/13 20:42:32;;;;;;;8.15;2.42;;;;;;;10.36;90.65;102133.28;10261898;28;20077;-69
2021/10/13 20:47:29;;;;;;;11.32;2.45;;;;;;;10.31;90.25;102137.66;10260480;28;20151;-69
2021/10/13 20:52:27;;;;;;;10.68;2.90;;;;;;;10.24;91.03;102131.66;10255978;28;20075;-69
2021/10/13 20:57:24;;;;;;;6.97;2.67;;;;;;;10.17;91.49;102135.81;10260481;28;20050;-69
2021/10/13 21:02:20;;;;;;;14.75;3.13;;;;;;;10.13;91.49;102135.53;10261411;28;20122;-70
2021/10/13 21:07:21;;;;;;;14.13;3.33;;;;;;;10.14;91.30;102125.41;10260511;28;20049;-69
2021/10/13 21:12:18;;;;;;;13.40;3.38;;;;;;;10.12;92.33;102122.97;10260119;28;20466;-70
2021/10/13 21:17:14;;;;;;;13.63;2.90;;;;;;;10.17;92.16;102113.94;10262385;28;20079;-70
2021/10/13 21:22:11;;;;;;;12.63;3.00;;;;;;;10.15;92.61;102100.53;10253050;28;20087;-70
2021/10/13 21:27:09;;;;;;;10.95;3.00;;;;;;;10.05;92.79;102100.59;10263311;28;20491;-70
2021/10/13 21:32:06;;;;;;;9.40;3.08;;;;;;;9.94;92.85;102090.81;10259371;28;20081;-70
2021/10/13 21:37:04;;;;;;;10.77;3.60;;;;;;;9.88;93.75;102085.34;10253527;28;20045;-70
2021/10/13 21:42:01;;;;;;;14.00;3.85;;;;;;;9.83;94.16;102088.09;10252261;28;20049;-69
2021/10/13 21:47:01;;;;;;;10.07;4.10;;;;;;;9.85;94.23;102087.84;10253834;28;20160;-69
2021/10/13 21:51:57;;;;;;;9.68;3.88;;;;;;;9.82;95.28;102081.03;10256242;28;20049;-70
2021/10/13 21:56:54;;;;;;;12.75;4.57;;;;;;;9.74;95.32;102084.31;10258608;28;20052;-70
2021/10/13 22:01:50;;;;;;;9.18;3.90;;;;;;;9.75;95.67;102085.13;10267185;28;20069;-70
2021/10/13 22:06:47;;;;;;;11.52;4.68;;;;;;;9.74;95.51;102078.84;10264737;28;20049;-69
2021/10/13 22:11:44;;;;;;;11.23;4.78;;;;;;;9.79;96.16;102075.28;10256844;28;20120;-70
2021/10/13 22:16:40;;;;;;;15.32;6.10;;;;;;;9.75;96.46;102075.03;10263229;28;20049;-69
2021/10/13 22:21:37;;;;;;;8.23;4.90;;;;;;;9.69;97.48;102063.31;10259080;28;20091;-69
2021/10/13 22:26:33;;;;;;;8.98;4.95;;;;;;;9.62;97.06;102054.59;10273969;28;20045;-69
2021/10/13 22:31:30;;;;;;;7.32;4.22;;;;;;;9.64;97.78;102057.06;10271713;28;20037;-69
2021/10/13 22:36:28;;;;;;;9.00;5.22;;;;;;;9.62;97.93;102040.13;10263992;28;20060;-69
2021/10/13 22:41:24;;;;;;;7.95;4.82;;;;;;;9.60;98.33;102039.59;10268193;28;20061;-69
2021/10/13 22:46:21;;;;;;;8.98;5.47;;;;;;;9.48;98.98;102039.91;10271297;28;20050;-69
2021/10/13 22:51:18;;;;;;;9.73;5.43;;;;;;;9.56;99.12;102033.88;10261863;28;20075;-69
2021/10/13 22:56:17;;;;;;;7.45;5.32;;;;;;;9.57;99.05;102040.97;10267812;28;20073;-69